Terminal Aerodrome Forecast
Issued by NWS

Home | Current Version | Previous Version | Text Only | Print | Product List | Glossary On
Versions: 1 2 3 4 5 6 7 8 9 10 11 12 13 14 15 16
000
FTUS46 KPDT 261100 AAA
TAFYKM
TAF AMD
KYKM 261152Z 2612/2706 VRB04KT P6SM OVC009
     FM261800 VRB03KT P6SM SCT012 BKN200 OVC250
     FM262000 19003KT P6SM BKN200
     FM270200 00000KT 3SM BR SCT003 BKN150
     FM270500 00000KT 1SM BR OVC002=

USA.gov is the U.S. government's official web portal to all federal, state and local government web resources and services.